Time;durP1;ratioP1;P1;durP2;ratioP2;P2;SDS_P1;SDS_P2;PMS_P1;PMS_P2;Temp;Humidity;BMP_temperature;BMP_pressure;BME280_temperature;BME280_humidity;BME280_pressure;Samples;Min_cycle;Max_cycle;Signal;HPM_P1;HPM_P2
2022/04/22 00:01:38;;;;;;;7.13;2.27;;;;;;;7.59;97.81;100864.69;5015452;28;20033;-89
2022/04/22 00:04:04;;;;;;;7.47;1.70;;;;;;;7.55;97.80;100855.31;5015803;28;20041;-86
2022/04/22 00:06:29;;;;;;;5.47;2.37;;;;;;;7.49;98.69;100858.56;5028923;28;20033;-85
2022/04/22 00:08:55;;;;;;;4.17;2.00;;;;;;;7.51;98.85;100867.22;5029426;28;20036;-85
2022/04/22 00:11:30;;;;;;;2.45;1.33;;;;;;;7.66;97.75;100867.66;5015185;28;20065;-86
2022/04/22 00:13:58;;;;;;;3.45;1.40;;;;;;;7.58;98.05;100868.31;5015689;28;20035;-85
2022/04/22 00:16:25;;;;;;;4.45;1.92;;;;;;;7.54;98.06;100866.13;5031979;28;20025;-86
2022/04/22 00:18:50;;;;;;;3.58;1.70;;;;;;;7.56;97.70;100845.53;5015730;28;20116;-85
2022/04/22 00:21:23;;;;;;;6.20;2.23;;;;;;;7.58;97.24;100844.41;5031593;28;20021;-85
2022/04/22 00:23:49;;;;;;;8.27;1.70;;;;;;;7.54;97.55;100853.66;5015373;28;20030;-87
2022/04/22 00:26:16;;;;;;;5.03;1.92;;;;;;;7.43;97.81;100843.16;5000454;28;20041;-85
2022/04/22 00:28:41;;;;;;;2.78;1.90;;;;;;;7.43;98.90;100864.41;5033142;28;20048;-87
2022/04/22 00:31:06;;;;;;;6.90;2.30;;;;;;;7.54;98.69;100871.44;5015342;28;20026;-85
2022/04/22 00:33:32;;;;;;;5.67;2.03;;;;;;;7.54;98.12;100864.28;5032572;28;20493;-85
2022/04/22 00:35:58;;;;;;;2.53;1.60;;;;;;;7.60;98.54;100873.50;5030380;28;20101;-86
2022/04/22 00:38:23;;;;;;;3.42;1.60;;;;;;;7.57;98.68;100865.81;5032097;28;20060;-84
2022/04/22 00:40:48;;;;;;;2.47;1.70;;;;;;;7.50;98.92;100873.50;5015672;28;20112;-87
2022/04/22 00:43:17;;;;;;;4.03;2.10;;;;;;;7.52;99.72;100884.00;5032099;28;20053;-86
2022/04/22 00:45:44;;;;;;;5.32;1.67;;;;;;;7.51;100.00;100887.63;5033548;28;20021;-85
2022/04/22 00:48:09;;;;;;;4.72;2.10;;;;;;;7.50;100.00;100892.09;5016163;28;20025;-85
2022/04/22 00:50:35;;;;;;;3.97;1.90;;;;;;;7.53;100.00;100897.13;5015848;28;20504;-85
2022/04/22 00:53:02;;;;;;;4.30;2.00;;;;;;;7.51;100.00;100898.25;5015869;28;20489;-85
2022/04/22 00:55:29;;;;;;;3.47;1.95;;;;;;;7.40;100.00;100885.97;5012389;28;20037;-85
2022/04/22 00:57:55;;;;;;;3.47;1.92;;;;;;;7.34;100.00;100903.28;5012811;28;20120;-85
2022/04/22 01:00:20;;;;;;;6.50;2.58;;;;;;;7.35;100.00;100914.72;5016185;28;20440;-85
2022/04/22 01:02:46;;;;;;;4.50;2.10;;;;;;;7.29;100.00;100920.59;5012468;28;20034;-86
2022/04/22 01:10:40;;;;;;;10.60;2.28;;;;;;;7.22;100.00;100952.19;5038822;28;20378;-87
2022/04/22 01:13:07;;;;;;;6.10;2.08;;;;;;;7.19;100.00;100944.50;5017394;28;20029;-86
2022/04/22 01:15:37;;;;;;;5.75;2.42;;;;;;;7.15;100.00;100946.56;5013669;28;20033;-85
2022/04/22 01:18:03;;;;;;;6.25;2.33;;;;;;;7.07;100.00;100953.50;5031483;28;20021;-85
2022/04/22 01:20:29;;;;;;;5.13;2.13;;;;;;;7.05;100.00;100951.00;5016307;28;20045;-85
2022/04/22 01:22:54;;;;;;;5.90;2.00;;;;;;;7.05;100.00;100939.56;5017088;28;20047;-85
2022/04/22 01:25:19;;;;;;;5.80;2.30;;;;;;;6.97;100.00;100940.22;5018475;28;20280;-85
2022/04/22 01:27:50;;;;;;;11.10;2.10;;;;;;;6.93;100.00;100952.06;5016689;28;20018;-85
2022/04/22 01:30:20;;;;;;;4.43;2.20;;;;;;;6.92;100.00;100953.06;5020986;28;20033;-85
2022/04/22 01:32:48;;;;;;;5.03;2.10;;;;;;;6.82;100.00;100953.00;5012161;28;20037;-86
2022/04/22 01:35:14;;;;;;;8.05;2.58;;;;;;;6.88;100.00;100962.25;5015507;28;20100;-86
2022/04/22 01:37:39;;;;;;;13.60;3.20;;;;;;;6.79;100.00;100957.72;5031987;28;20104;-85
2022/04/22 01:40:05;;;;;;;11.03;3.13;;;;;;;6.82;100.00;100970.75;5015933;28;20551;-85
2022/04/22 01:42:30;;;;;;;9.02;2.78;;;;;;;6.76;100.00;100958.84;5032258;28;20120;-86
2022/04/22 01:44:56;;;;;;;7.13;2.60;;;;;;;6.65;100.00;100957.13;5015948;28;20112;-85
2022/04/22 01:47:21;;;;;;;8.00;2.37;;;;;;;6.56;100.00;100971.19;5032119;28;20025;-85
2022/04/22 01:49:47;;;;;;;8.77;2.30;;;;;;;6.55;100.00;100969.47;5013054;28;20032;-85
2022/04/22 01:52:12;;;;;;;7.63;2.73;;;;;;;6.55;100.00;100970.34;5031326;28;20041;-85
2022/04/22 01:54:38;;;;;;;3.63;2.03;;;;;;;6.49;100.00;100962.91;5012527;28;20029;-85
2022/04/22 01:57:03;;;;;;;7.30;2.03;;;;;;;6.46;100.00;100954.34;5031854;28;20128;-86
2022/04/22 01:59:29;;;;;;;6.25;2.33;;;;;;;6.41;100.00;100952.09;5016085;28;20051;-87
2022/04/22 02:01:54;;;;;;;4.73;2.17;;;;;;;6.38;100.00;100951.53;5031585;28;20045;-86
2022/04/22 02:04:19;;;;;;;6.07;2.30;;;;;;;6.35;100.00;100955.28;5015615;28;20039;-86
2022/04/22 02:06:45;;;;;;;8.07;2.50;;;;;;;6.33;100.00;100958.06;5032325;28;20034;-85
2022/04/22 02:09:11;;;;;;;8.15;2.70;;;;;;;6.41;100.00;100959.22;5031867;28;20034;-85
2022/04/22 02:11:36;;;;;;;4.82;2.70;;;;;;;6.31;100.00;100944.06;5015062;28;20038;-85
2022/04/22 02:14:02;;;;;;;7.07;2.90;;;;;;;6.36;100.00;100961.41;5015341;28;20035;-86
2022/04/22 02:16:27;;;;;;;5.37;2.33;;;;;;;6.27;100.00;100963.84;5032129;28;20920;-85
2022/04/22 02:18:53;;;;;;;7.27;3.30;;;;;;;6.26;100.00;100975.44;5031869;28;20279;-86
2022/04/22 02:21:21;;;;;;;8.97;3.20;;;;;;;6.16;100.00;100965.72;5030537;28;20033;-87
2022/04/22 02:23:46;;;;;;;5.70;2.60;;;;;;;6.14;100.00;100976.47;5017858;28;20079;-88
2022/04/22 02:26:12;;;;;;;6.47;2.70;;;;;;;6.06;100.00;100977.13;5038822;28;20229;-85
2022/04/22 02:28:38;;;;;;;15.43;4.53;;;;;;;6.02;100.00;100977.50;5037788;28;20052;-88
2022/04/22 02:31:08;;;;;;;9.18;2.72;;;;;;;6.01;100.00;100974.00;5021308;28;20049;-88
2022/04/22 02:33:36;;;;;;;6.70;2.72;;;;;;;6.02;100.00;100983.66;5019386;28;20033;-88
2022/04/22 02:36:04;;;;;;;6.82;2.75;;;;;;;5.90;100.00;100979.34;5019926;28;20075;-86
2022/04/22 02:38:30;;;;;;;11.07;3.35;;;;;;;5.80;100.00;100971.28;5038671;28;20120;-86
2022/04/22 02:46:38;;;;;;;9.93;3.80;;;;;;;5.62;100.00;100978.94;5039534;28;20432;-89
2022/04/22 02:49:03;;;;;;;9.80;3.27;;;;;;;5.59;100.00;100962.44;5022203;28;20029;-88
2022/04/22 02:51:29;;;;;;;10.13;4.07;;;;;;;5.52;100.00;100974.50;5039637;28;20044;-87
2022/04/22 02:53:55;;;;;;;9.90;2.97;;;;;;;5.46;100.00;100966.09;5024158;28;20029;-87
2022/04/22 02:56:22;;;;;;;8.60;3.38;;;;;;;5.42;100.00;100966.47;5040623;28;20034;-87
2022/04/22 02:58:47;;;;;;;9.75;3.13;;;;;;;5.34;100.00;100964.44;5020645;28;20030;-87
2022/04/22 03:01:15;;;;;;;10.48;3.17;;;;;;;5.19;100.00;100958.56;5056987;28;20064;-87
2022/04/22 03:03:42;;;;;;;9.68;3.17;;;;;;;5.15;100.00;100961.56;5029370;28;20026;-85
2022/04/22 03:06:08;;;;;;;7.18;3.60;;;;;;;5.07;100.00;100957.72;5029843;28;20056;-85
2022/04/22 03:08:34;;;;;;;6.07;3.73;;;;;;;5.07;100.00;100965.66;5029839;28;20478;-88
2022/04/22 03:11:00;;;;;;;7.93;3.55;;;;;;;5.00;100.00;100958.34;5030206;28;20044;-86
2022/04/22 03:13:25;;;;;;;9.33;3.30;;;;;;;5.05;100.00;100961.47;5013120;28;20455;-86
2022/04/22 03:15:51;;;;;;;6.87;3.40;;;;;;;5.12;100.00;100962.66;5016365;28;20037;-85
2022/04/22 03:18:16;;;;;;;9.03;3.40;;;;;;;5.08;100.00;100951.47;5026811;28;20021;-87
2022/04/22 03:20:41;;;;;;;10.53;4.40;;;;;;;5.14;100.00;100955.44;5027440;28;20263;-86
2022/04/22 03:23:07;;;;;;;7.73;3.40;;;;;;;5.10;100.00;100953.16;5035576;28;20029;-86
2022/04/22 03:25:32;;;;;;;8.03;3.27;;;;;;;5.17;100.00;100949.06;5040687;28;20296;-87
2022/04/22 03:27:58;;;;;;;7.87;3.07;;;;;;;5.22;100.00;100953.03;5038657;28;20072;-88
2022/04/22 03:30:24;;;;;;;9.02;3.25;;;;;;;5.19;100.00;100945.31;5019465;28;20030;-87
2022/04/22 03:32:49;;;;;;;6.90;2.83;;;;;;;5.25;100.00;100947.47;5037619;28;20029;-86
2022/04/22 03:35:15;;;;;;;6.35;3.25;;;;;;;5.19;100.00;100931.25;5026701;28;20044;-87
2022/04/22 03:37:42;;;;;;;5.93;2.93;;;;;;;5.24;100.00;100939.66;5025636;28;20117;-88
2022/04/22 03:40:10;;;;;;;6.70;2.97;;;;;;;5.25;100.00;100931.59;5042423;28;20037;-88
2022/04/22 03:42:36;;;;;;;5.38;2.85;;;;;;;5.19;100.00;100928.59;5022201;28;20045;-86
2022/04/22 03:45:03;;;;;;;6.97;3.70;;;;;;;5.14;100.00;100914.91;5023858;28;20041;-87
2022/04/22 03:47:28;;;;;;;6.80;3.05;;;;;;;5.23;100.00;100922.94;5025523;28;20022;-87
2022/04/22 03:49:54;;;;;;;4.78;2.58;;;;;;;5.37;100.00;100910.41;5025869;28;20045;-87
2022/04/22 03:52:19;;;;;;;5.07;3.27;;;;;;;5.39;100.00;100906.66;5023672;28;20022;-87
2022/04/22 03:54:45;;;;;;;3.53;2.50;;;;;;;5.34;100.00;100898.25;5040866;28;20063;-87
2022/04/22 03:59:54;;;;;;;5.82;3.05;;;;;;;5.25;100.00;100889.25;5040086;28;20037;-87
2022/04/22 04:02:20;;;;;;;8.23;2.17;;;;;;;5.25;100.00;100877.81;5020202;28;20026;-87
2022/04/22 04:04:45;;;;;;;7.95;3.03;;;;;;;5.34;100.00;100884.16;5035987;28;20501;-86
2022/04/22 04:07:11;;;;;;;5.63;2.33;;;;;;;5.32;100.00;100884.28;5040846;28;20025;-87
2022/04/22 04:17:49;;;;;;;3.42;2.55;;;;;;;5.15;100.00;100882.16;5038466;28;20505;-86
2022/04/22 04:25:44;;;;;;;6.60;2.55;;;;;;;5.38;100.00;100873.19;5039719;28;20555;-88
2022/04/22 04:28:10;;;;;;;3.38;2.08;;;;;;;5.32;100.00;100854.34;5020693;28;20378;-86
2022/04/22 04:30:40;;;;;;;5.22;2.53;;;;;;;5.28;100.00;100862.50;5016865;28;20061;-86
2022/04/22 04:33:07;;;;;;;5.82;2.95;;;;;;;5.25;100.00;100860.13;5050956;28;20030;-87
2022/04/22 04:35:34;;;;;;;4.95;3.30;;;;;;;5.35;100.00;100865.50;5035921;28;20033;-87
2022/04/22 04:38:00;;;;;;;5.88;2.47;;;;;;;5.31;100.00;100866.72;5019113;28;20505;-86
2022/04/22 04:40:26;;;;;;;3.65;2.60;;;;;;;5.50;100.00;100871.34;5036946;28;20026;-87
2022/04/22 04:42:58;;;;;;;5.30;2.65;;;;;;;5.53;100.00;100864.97;5038320;28;20032;-88
2022/04/22 04:45:23;;;;;;;3.08;1.63;;;;;;;5.56;100.00;100864.72;5018615;28;20025;-87
2022/04/22 04:47:49;;;;;;;4.20;2.85;;;;;;;5.58;100.00;100862.78;5019920;28;20014;-87
2022/04/22 04:50:14;;;;;;;3.53;2.60;;;;;;;5.58;100.00;100852.19;5036286;28;20117;-87
2022/04/22 04:52:41;;;;;;;4.97;2.50;;;;;;;5.71;100.00;100860.75;5037886;28;20100;-86
2022/04/22 04:55:09;;;;;;;5.75;2.10;;;;;;;5.77;100.00;100865.56;5020351;28;20120;-86
2022/04/22 04:57:35;;;;;;;12.77;3.00;;;;;;;5.84;100.00;100856.13;5036403;28;20077;-86
2022/04/22 05:00:05;;;;;;;5.65;1.83;;;;;;;5.90;100.00;100858.28;5036663;28;20454;-86
2022/04/22 05:02:32;;;;;;;6.20;1.88;;;;;;;5.92;100.00;100855.47;5019529;28;20044;-86
2022/04/22 05:04:57;;;;;;;5.28;3.00;;;;;;;5.94;100.00;100842.97;5017387;28;20026;-87
2022/04/22 05:07:22;;;;;;;12.10;3.10;;;;;;;6.00;100.00;100852.22;5036049;28;20041;-88
2022/04/22 05:09:48;;;;;;;4.73;2.43;;;;;;;6.03;100.00;100847.50;5019810;28;20021;-87
2022/04/22 05:12:13;;;;;;;4.83;1.90;;;;;;;6.09;100.00;100846.97;5035179;28;20120;-87
2022/04/22 05:14:38;;;;;;;4.63;2.17;;;;;;;6.16;100.00;100844.66;5019968;28;20025;-86
2022/04/22 05:17:04;;;;;;;5.70;2.00;;;;;;;6.20;100.00;100840.75;5037972;28;20046;-87
2022/04/22 05:19:30;;;;;;;3.50;1.88;;;;;;;6.39;100.00;100852.41;5036439;28;20036;-86
2022/04/22 05:21:55;;;;;;;3.43;1.83;;;;;;;7.95;100.00;100872.91;5035201;28;20037;-86
2022/04/22 05:24:21;;;;;;;6.13;2.10;;;;;;;8.98;100.00;100807.25;5015946;28;20092;-88
2022/04/22 05:26:46;;;;;;;3.42;2.00;;;;;;;9.80;100.00;100727.16;5015449;28;20026;-87
2022/04/22 05:34:40;;;;;;;4.50;2.05;;;;;;;11.47;80.66;100473.28;5032411;28;20559;-86
2022/04/22 05:37:05;;;;;;;6.60;1.53;;;;;;;11.13;81.56;100506.50;5016351;28;20030;-83
2022/04/22 05:39:31;;;;;;;5.97;1.97;;;;;;;11.26;81.60;100546.88;5035758;28;20029;-87
2022/04/22 05:41:56;;;;;;;7.13;2.13;;;;;;;11.79;77.65;100505.19;5015120;28;20663;-86
2022/04/22 05:44:21;;;;;;;4.43;2.33;;;;;;;11.99;75.83;100499.44;5031423;28;20140;-86
2022/04/22 05:46:48;;;;;;;6.03;2.43;;;;;;;12.11;74.69;100500.69;5015300;28;20029;-88
2022/04/22 05:49:13;;;;;;;5.50;2.10;;;;;;;12.44;72.35;100441.50;5031758;28;20477;-87
2022/04/22 05:51:50;;;;;;;4.50;2.03;;;;;;;11.92;74.11;100471.72;5032783;28;20025;-87
2022/04/22 05:54:15;;;;;;;5.82;2.38;;;;;;;12.41;73.85;100519.53;5015821;28;20378;-86
2022/04/22 05:56:40;;;;;;;6.10;2.10;;;;;;;12.49;72.39;100497.19;5014186;28;20025;-86
2022/04/22 05:59:06;;;;;;;8.03;1.73;;;;;;;12.38;73.43;100541.28;5031921;28;20037;-87
2022/04/22 06:01:31;;;;;;;7.33;2.00;;;;;;;12.80;71.19;100505.09;5030719;28;20078;-87
2022/04/22 06:03:57;;;;;;;4.83;1.80;;;;;;;13.07;69.28;100461.59;5029503;28;20065;-87
2022/04/22 06:06:22;;;;;;;7.17;2.20;;;;;;;13.17;70.48;100544.41;5015038;28;20029;-89
2022/04/22 06:11:32;;;;;;;6.43;2.97;;;;;;;12.76;73.15;100582.31;5026469;28;20060;-87
2022/04/22 06:13:58;;;;;;;4.55;1.90;;;;;;;11.57;70.20;100330.34;5032291;28;20055;-88
2022/04/22 06:16:23;;;;;;;5.78;2.00;;;;;;;11.45;78.53;100609.81;5015893;28;20744;-86
2022/04/22 06:18:49;;;;;;;6.30;1.93;;;;;;;11.28;77.94;100576.91;5017094;28;20022;-85
2022/04/22 06:21:14;;;;;;;6.97;2.20;;;;;;;11.43;78.51;100621.69;5033374;28;20036;-86
2022/04/22 06:23:39;;;;;;;5.37;2.07;;;;;;;11.94;77.43;100648.94;5017683;28;20071;-85
2022/04/22 06:26:05;;;;;;;4.80;2.00;;;;;;;11.64;75.94;100544.41;5031951;28;20036;-85
2022/04/22 06:28:31;;;;;;;11.90;2.20;;;;;;;12.15;75.75;100617.06;5032887;28;20026;-86
2022/04/22 06:30:57;;;;;;;;;;;;;;;12.33;74.51;100599.88;5016530;28;20041;-86
2022/04/22 06:33:22;;;;;;;;;;;;;;;12.29;74.84;100594.06;5033356;28;19987;-90
2022/04/22 06:35:48;;;;;;;6.23;1.97;;;;;;;11.44;75.36;100503.88;5032829;28;19971;-86
2022/04/22 06:38:18;;;;;;;7.53;2.05;;;;;;;11.05;80.46;100629.41;5015008;28;20056;-86
2022/04/22 06:46:18;;;;;;;4.18;2.55;;;;;;;12.33;74.66;100589.19;5032596;28;20037;-86
2022/04/22 06:48:44;;;;;;;7.55;2.55;;;;;;;10.34;79.39;100496.44;5031295;28;20489;-85
2022/04/22 06:51:11;;;;;;;10.50;2.67;;;;;;;11.27;84.18;100734.78;5032508;28;20032;-86
2022/04/22 06:53:37;;;;;;;7.20;2.75;;;;;;;11.92;80.76;100707.16;5033550;28;20034;-85
2022/04/22 06:56:06;;;;;;;6.97;2.33;;;;;;;12.17;76.91;100620.38;5015585;28;20563;-88
2022/04/22 06:58:33;;;;;;;7.93;1.98;;;;;;;12.14;74.34;100529.75;5032274;28;20045;-85
2022/04/22 07:00:59;;;;;;;6.75;2.47;;;;;;;13.04;74.15;100633.50;5034463;28;20037;-87
2022/04/22 07:03:25;;;;;;;5.65;1.88;;;;;;;13.58;72.29;100635.16;5016609;28;20029;-87
2022/04/22 07:05:52;;;;;;;7.85;2.20;;;;;;;13.69;68.99;100534.59;5033578;28;20021;-87
2022/04/22 07:08:19;;;;;;;6.20;2.53;;;;;;;13.43;68.03;100474.25;5029801;28;20041;-89
2022/04/22 07:10:49;;;;;;;7.40;2.08;;;;;;;13.15;70.31;100533.03;5029893;28;20048;-87
2022/04/22 07:13:16;;;;;;;10.18;2.20;;;;;;;12.13;70.30;100404.16;5012540;28;20048;-87
2022/04/22 07:15:43;;;;;;;10.18;2.30;;;;;;;12.10;76.04;100591.81;5029524;28;20025;-87
2022/04/22 07:18:10;;;;;;;7.03;1.95;;;;;;;12.22;77.15;100660.84;5016139;28;20531;-87
2022/04/22 07:20:36;;;;;;;5.55;2.10;;;;;;;12.40;75.50;100625.75;5024259;28;20037;-87
2022/04/22 07:23:02;;;;;;;7.90;2.33;;;;;;;12.44;74.70;100594.13;5026017;28;20036;-89
2022/04/22 07:25:28;;;;;;;9.57;3.20;;;;;;;12.84;74.32;100643.03;5033262;28;20439;-90
2022/04/22 07:27:54;;;;;;;8.65;3.13;;;;;;;13.05;74.08;100658.44;5017860;28;20132;-87
2022/04/22 07:30:21;;;;;;;7.05;2.47;;;;;;;13.26;70.89;100574.63;5024562;28;20489;-87
2022/04/22 07:32:47;;;;;;;8.18;2.72;;;;;;;12.88;69.92;100499.66;5015984;28;20033;-87
2022/04/22 07:35:15;;;;;;;6.72;2.35;;;;;;;12.99;71.88;100589.47;5034471;28;20442;-87
2022/04/22 07:37:42;;;;;;;10.75;2.20;;;;;;;12.73;74.16;100624.69;5034196;28;20048;-88
2022/04/22 07:40:08;;;;;;;8.45;2.47;;;;;;;12.81;74.87;100663.00;5017832;28;20175;-88
2022/04/22 07:42:35;;;;;;;8.02;2.58;;;;;;;13.36;72.68;100652.97;5033293;28;20036;-89
2022/04/22 07:47:46;;;;;;;4.87;2.33;;;;;;;12.72;70.90;100489.13;5040110;28;20003;-87
2022/04/22 07:50:13;;;;;;;6.90;2.42;;;;;;;12.71;73.81;100603.44;5032437;28;20122;-91
2022/04/22 07:52:38;;;;;;;11.80;3.22;;;;;;;13.44;72.95;100671.69;5016035;28;20025;-87
2022/04/22 07:55:04;;;;;;;7.47;2.40;;;;;;;13.74;70.79;100639.47;5032781;28;20394;-90
2022/04/22 07:57:30;;;;;;;7.95;2.90;;;;;;;12.10;71.71;100453.50;5016555;28;20029;-87
2022/04/22 07:59:56;;;;;;;9.57;2.78;;;;;;;12.21;72.85;100530.69;5049758;28;20052;-87
2022/04/22 08:02:23;;;;;;;9.85;2.67;;;;;;;12.39;75.54;100661.59;5012941;28;20037;-88
2022/04/22 08:04:49;;;;;;;10.85;2.70;;;;;;;12.84;72.93;100626.97;5016483;28;20531;-88
2022/04/22 08:07:16;;;;;;;11.80;2.70;;;;;;;13.55;70.55;100626.63;5016313;28;20045;-89
2022/04/22 08:09:42;;;;;;;7.00;2.60;;;;;;;13.44;71.13;100626.09;5032983;28;20116;-88
2022/04/22 08:12:08;;;;;;;7.28;2.92;;;;;;;14.30;69.69;100682.72;5032869;28;20128;-89
2022/04/22 08:14:34;;;;;;;7.65;2.42;;;;;;;13.09;71.17;100571.31;5024940;28;20029;-88
2022/04/22 08:17:00;;;;;;;9.57;3.35;;;;;;;13.43;69.97;100586.88;5024407;28;20457;-88
2022/04/22 08:19:25;;;;;;;9.98;2.60;;;;;;;13.14;70.65;100563.53;5017644;28;20035;-87
2022/04/22 08:21:52;;;;;;;8.10;2.67;;;;;;;13.31;71.98;100655.38;5054382;28;20033;-88
2022/04/22 08:24:18;;;;;;;8.07;2.72;;;;;;;13.87;70.82;100677.25;5019667;28;20464;-89
2022/04/22 08:26:43;;;;;;;8.18;2.83;;;;;;;14.14;67.32;100562.13;5036338;28;20071;-88
2022/04/22 08:29:09;;;;;;;7.23;3.03;;;;;;;12.10;74.44;100565.88;5036302;28;20021;-87
2022/04/22 08:31:34;;;;;;;9.10;2.53;;;;;;;12.50;77.00;100711.22;5035253;28;20037;-88
2022/04/22 08:34:00;;;;;;;13.47;4.30;;;;;;;12.72;76.13;100703.41;5017135;28;20033;-88
2022/04/22 08:36:30;;;;;;;7.07;3.42;;;;;;;12.91;74.54;100660.06;5019124;28;20029;-88
2022/04/22 08:38:57;;;;;;;6.07;3.08;;;;;;;12.76;73.92;100621.66;5035822;28;20091;-88
2022/04/22 08:41:23;;;;;;;12.60;3.47;;;;;;;12.11;75.17;100575.59;5025826;28;20063;-88
2022/04/22 08:43:56;;;;;;;10.65;2.95;;;;;;;12.30;77.58;100699.28;5032566;28;20033;-87
2022/04/22 08:51:56;;;;;;;10.48;3.83;;;;;;;12.41;78.63;100728.38;5035549;28;20033;-89
2022/04/22 08:54:22;;;;;;;12.60;3.35;;;;;;;13.00;79.26;100817.09;5019697;28;20017;-87
2022/04/22 08:56:49;;;;;;;8.45;3.42;;;;;;;12.65;76.78;100677.31;5020123;28;20040;-86
2022/04/22 08:59:16;;;;;;;10.13;3.72;;;;;;;12.70;76.85;100702.75;5026179;28;20021;-87
2022/04/22 09:01:41;;;;;;;9.85;4.07;;;;;;;11.24;83.77;100727.94;5015898;28;20041;-87
2022/04/22 09:04:07;;;;;;;9.57;3.58;;;;;;;11.45;83.28;100711.41;5068151;28;20094;-89
2022/04/22 09:06:33;;;;;;;8.63;3.63;;;;;;;11.04;88.45;100809.41;5025045;28;20029;-88
2022/04/22 09:08:59;;;;;;;10.27;4.60;;;;;;;11.31;88.67;100817.16;5032273;28;20029;-88
2022/04/22 09:11:25;;;;;;;9.87;3.63;;;;;;;11.22;88.80;100812.78;5018466;28;20573;-87
2022/04/22 09:13:51;;;;;;;10.10;3.70;;;;;;;12.32;87.68;100876.66;5018261;28;20079;-88
2022/04/22 09:16:20;;;;;;;11.83;3.63;;;;;;;12.95;81.66;100781.97;5026690;28;20060;-87
2022/04/22 09:18:46;;;;;;;15.07;4.50;;;;;;;12.86;80.56;100743.66;5018725;28;20036;-86
2022/04/22 09:21:16;;;;;;;15.75;3.88;;;;;;;12.96;79.10;100734.56;5035555;28;20037;-87
2022/04/22 09:23:41;;;;;;;11.10;4.00;;;;;;;12.94;80.58;100764.19;5024331;28;20048;-86
2022/04/22 09:26:19;;;;;;;11.60;3.70;;;;;;;12.97;78.04;100696.88;5021194;28;20009;-87
2022/04/22 09:28:58;;;;;;;13.50;5.10;;;;;;;11.79;77.67;100563.19;5035417;28;20473;-84
2022/04/22 09:31:25;;;;;;;9.25;3.85;;;;;;;11.60;82.59;100704.34;5017091;28;20488;-83
2022/04/22 09:33:51;;;;;;;8.05;3.30;;;;;;;11.53;82.74;100702.50;5025110;28;20396;-84
2022/04/22 09:45:04;;;;;;;8.27;3.67;;;;;;;12.61;78.76;100696.59;5032784;28;20040;-85
2022/04/22 09:47:31;;;;;;;11.52;4.47;;;;;;;12.31;79.54;100674.19;5033009;28;20025;-84
2022/04/22 09:49:57;;;;;;;11.23;3.97;;;;;;;12.79;80.58;100774.84;5015908;28;20029;-84
2022/04/22 09:52:28;;;;;;;14.05;4.10;;;;;;;12.09;80.45;100673.13;5012499;28;20040;-85
2022/04/22 09:54:59;;;;;;;13.85;4.15;;;;;;;12.45;82.13;100772.50;5059178;28;20504;-84
2022/04/22 09:57:25;;;;;;;12.18;4.68;;;;;;;12.54;81.28;100747.34;5032429;28;20039;-86
2022/04/22 09:59:52;;;;;;;;;;;;;;;12.54;81.10;100749.19;5025043;28;20055;-83
2022/04/22 10:02:21;;;;;;;12.10;3.50;;;;;;;13.19;79.42;100759.50;5012762;28;19971;-82
2022/04/22 10:04:49;;;;;;;14.07;3.97;;;;;;;13.18;77.11;100696.19;5032648;28;20028;-81
2022/04/22 10:07:17;;;;;;;11.60;4.43;;;;;;;12.35;79.04;100670.97;5048990;28;20627;-83
2022/04/22 10:09:45;;;;;;;12.38;3.55;;;;;;;13.21;76.50;100698.50;5032436;28;20066;-83
2022/04/22 10:12:15;;;;;;;12.00;4.18;;;;;;;14.15;73.79;100714.16;5049880;28;20045;-84
2022/04/22 10:14:42;;;;;;;6.72;3.63;;;;;;;14.92;70.39;100686.75;5015634;28;20071;-83
2022/04/22 10:17:10;;;;;;;12.98;4.90;;;;;;;14.21;68.15;100514.72;5015479;28;20117;-83
2022/04/22 10:19:35;;;;;;;12.30;4.13;;;;;;;15.04;68.10;100644.03;5015734;28;20036;-85
2022/04/22 10:22:02;;;;;;;11.27;5.97;;;;;;;15.19;66.07;100574.88;4998882;28;20029;-84
2022/04/22 10:24:31;;;;;;;9.65;4.55;;;;;;;13.14;67.52;100369.72;5004719;28;20064;-84
2022/04/22 10:26:59;;;;;;;11.63;5.47;;;;;;;13.98;73.39;100694.75;5021119;28;20037;-83
2022/04/22 10:29:25;;;;;;;10.15;4.13;;;;;;;13.64;69.45;100489.53;5011653;28;20030;-85
2022/04/22 10:31:51;;;;;;;;;;;;;;;13.80;72.72;100638.75;5011518;28;20623;-84
2022/04/22 10:34:16;;;;;;;;;;;;;;;13.94;73.08;100674.66;4997828;28;19913;-86
2022/04/22 10:36:43;;;;;;;8.10;4.83;;;;;;;13.62;70.05;100518.41;5000814;28;19909;-87
2022/04/22 10:39:11;;;;;;;11.80;4.68;;;;;;;14.20;72.13;100684.88;5001190;28;20409;-87
2022/04/22 10:41:49;;;;;;;14.95;4.28;;;;;;;14.49;70.79;100662.53;5016484;28;20094;-88
2022/04/22 10:47:13;;;;;;;13.10;4.82;;;;;;;14.89;68.90;100640.59;5016252;28;20086;-85
2022/04/22 10:49:40;;;;;;;12.82;3.70;;;;;;;15.51;67.65;100677.50;5000570;28;20037;-86
2022/04/22 10:52:13;;;;;;;;;;;;;;;16.51;63.91;100653.75;5014677;28;20048;-86
2022/04/22 10:54:50;;;;;;;12.50;3.72;;;;;;;17.77;61.44;100674.53;5032305;28;20509;-87
2022/04/22 10:57:27;;;;;;;13.13;3.78;;;;;;;18.51;56.26;100532.63;5032199;28;20044;-86
2022/04/22 11:00:09;;;;;;;16.83;5.00;;;;;;;18.06;54.89;100359.88;5014638;28;20045;-89
2022/04/22 11:02:37;;;;;;;12.60;4.22;;;;;;;18.03;54.83;100384.63;5014312;28;20040;-87
2022/04/22 11:05:32;;;;;;;11.57;4.07;;;;;;;17.46;54.59;100279.31;5013150;28;20033;-87
2022/04/22 11:07:57;;;;;;;10.40;4.83;;;;;;;17.75;57.08;100463.31;4991549;28;20053;-88
2022/04/22 11:10:29;;;;;;;10.38;5.40;;;;;;;17.64;56.90;100447.78;4996524;28;20175;-87
2022/04/22 11:12:59;;;;;;;12.85;4.22;;;;;;;17.34;57.01;100431.34;4996075;28;20494;-88
2022/04/22 11:15:43;;;;;;;9.30;3.80;;;;;;;17.14;57.69;100399.88;5012288;28;20102;-88
2022/04/22 11:18:10;;;;;;;11.32;4.45;;;;;;;16.86;60.24;100508.88;5012291;28;20030;-88
2022/04/22 11:20:44;;;;;;;;;;;;;;;17.77;58.72;100580.03;4997443;28;20032;-88
2022/04/22 11:23:13;;;;;;;11.38;3.95;;;;;;;17.75;57.45;100490.31;5029866;28;19971;-88
2022/04/22 11:25:41;;;;;;;12.77;5.55;;;;;;;17.61;57.12;100462.56;5012986;28;20021;-87
2022/04/22 11:28:08;;;;;;;13.65;4.05;;;;;;;17.05;56.81;100341.84;4996490;28;20655;-88
2022/04/22 11:30:35;;;;;;;9.75;4.80;;;;;;;16.18;59.29;100363.63;5014046;28;20014;-86
2022/04/22 11:33:23;;;;;;;8.32;3.78;;;;;;;15.56;64.13;100504.69;5036430;28;20048;-87
2022/04/22 11:35:49;;;;;;;7.85;4.13;;;;;;;16.21;62.01;100503.25;5013817;28;20037;-87
2022/04/22 11:38:16;;;;;;;7.70;3.50;;;;;;;17.01;59.63;100537.47;5004402;28;20021;-87
2022/04/22 11:40:43;;;;;;;11.00;3.97;;;;;;;17.24;58.48;100515.44;5012457;28;20469;-87
2022/04/22 11:43:14;;;;;;;10.32;4.38;;;;;;;17.86;56.37;100486.09;5013205;28;20097;-87
2022/04/22 11:45:44;;;;;;;10.90;3.67;;;;;;;18.74;54.10;100490.66;4994214;28;20397;-88
2022/04/22 11:48:14;;;;;;;12.48;3.92;;;;;;;16.85;56.50;100318.47;5046277;28;20044;-88
2022/04/22 11:50:45;;;;;;;6.60;3.13;;;;;;;16.57;58.17;100345.69;5011430;28;20470;-88
2022/04/22 11:53:20;;;;;;;8.32;4.78;;;;;;;16.38;59.89;100422.03;5015733;28;20041;-87
2022/04/22 11:55:48;;;;;;;14.57;4.45;;;;;;;18.42;58.29;100639.38;5021637;28;20061;-87
2022/04/22 11:58:19;;;;;;;8.63;4.38;;;;;;;17.93;58.48;100567.91;5005825;28;20057;-87
2022/04/22 12:06:13;;;;;;;9.23;4.00;;;;;;;19.77;52.75;100527.84;5025506;28;20193;-87
2022/04/22 12:08:56;;;;;;;7.20;3.30;;;;;;;19.08;52.06;100351.31;5016281;28;20092;-87
2022/04/22 12:11:23;;;;;;;12.75;4.82;;;;;;;19.21;50.95;100317.84;4993927;28;20038;-86
2022/04/22 12:13:49;;;;;;;10.98;4.32;;;;;;;16.59;56.87;100238.53;5001236;28;20022;-86
2022/04/22 12:16:23;;;;;;;9.77;3.97;;;;;;;17.76;55.99;100369.63;5000320;28;20098;-85
2022/04/22 12:18:50;;;;;;;7.47;3.60;;;;;;;19.55;53.81;100548.28;5016500;28;20033;-87
2022/04/22 12:21:17;;;;;;;10.55;4.07;;;;;;;19.18;52.71;100407.59;4979667;28;20096;-88
2022/04/22 12:23:45;;;;;;;8.68;3.55;;;;;;;19.47;52.16;100434.91;5011546;28;20432;-87
2022/04/22 12:26:21;;;;;;;10.43;4.55;;;;;;;19.15;52.04;100356.63;5016648;28;20021;-87
2022/04/22 12:29:12;;;;;;;8.38;3.97;;;;;;;20.12;51.56;100472.97;5033713;28;20053;-88
2022/04/22 12:31:43;;;;;;;13.63;5.25;;;;;;;20.68;50.92;100475.44;5011885;28;20049;-88